Time;durP1;ratioP1;P1;durP2;ratioP2;P2;SDS_P1;SDS_P2;PMS_P1;PMS_P2;Temp;Humidity;BMP_temperature;BMP_pressure;BME280_temperature;BME280_humidity;BME280_pressure;Samples;Min_cycle;Max_cycle;Signal;HPM_P1;HPM_P2
2022/10/15 00:02:49;;;;;;;17.57;9.53;;;;;;;3.58;64.07;101683.78;1878583;76;21334;-63
2022/10/15 00:05:54;;;;;;;13.10;8.28;;;;;;;3.61;64.16;101673.22;1879216;76;21157;-61
2022/10/15 00:09:01;;;;;;;18.95;8.63;;;;;;;3.61;64.19;101672.75;1879232;76;21500;-61
2022/10/15 00:12:08;;;;;;;14.65;8.75;;;;;;;3.64;64.26;101675.25;1804728;79;21244;-62
2022/10/15 00:15:17;;;;;;;16.60;8.85;;;;;;;3.65;64.28;101667.98;1879210;76;21235;-62
2022/10/15 00:18:23;;;;;;;15.78;8.68;;;;;;;3.62;64.29;101662.30;1879161;76;21285;-61
2022/10/15 00:21:29;;;;;;;17.75;9.58;;;;;;;3.64;64.34;101670.31;1879405;76;21366;-60
2022/10/15 00:24:37;;;;;;;16.73;9.55;;;;;;;3.62;64.37;101670.42;1879193;76;21180;-62
2022/10/15 00:27:44;;;;;;;15.88;9.23;;;;;;;3.62;64.48;101669.53;1879282;76;21315;-61
2022/10/15 00:30:50;;;;;;;14.18;8.65;;;;;;;3.65;64.61;101671.56;1879165;76;21200;-61
2022/10/15 00:33:57;;;;;;;14.38;9.03;;;;;;;3.66;64.68;101668.38;1879164;76;21171;-60
2022/10/15 00:37:05;;;;;;;17.30;9.40;;;;;;;3.68;64.71;101675.42;1875285;76;21161;-62
2022/10/15 00:40:14;;;;;;;14.23;8.13;;;;;;;3.72;64.75;101676.09;1878969;76;21200;-61
2022/10/15 00:43:19;;;;;;;16.97;8.68;;;;;;;3.70;64.67;101674.84;1786848;79;21267;-61
2022/10/15 00:46:33;;;;;;;16.05;8.93;;;;;;;3.66;64.51;101676.03;1804975;79;21157;-61
2022/10/15 00:49:44;;;;;;;15.03;8.43;;;;;;;3.56;64.31;101681.66;1792811;78;21221;-61
2022/10/15 00:53:09;;;;;;;15.90;8.45;;;;;;;3.51;64.39;101677.48;1804718;79;21184;-63
2022/10/15 00:56:14;;;;;;;14.10;8.23;;;;;;;3.46;64.39;101681.85;1837842;78;21717;-61
2022/10/15 00:59:21;;;;;;;15.95;8.65;;;;;;;3.43;64.51;101676.64;1804678;79;21220;-62
2022/10/15 01:02:28;;;;;;;14.75;8.15;;;;;;;3.44;64.76;101683.78;1837811;78;21248;-62
2022/10/15 01:05:34;;;;;;;15.28;8.73;;;;;;;3.48;64.92;101681.75;1804959;79;21236;-61
2022/10/15 01:08:41;;;;;;;15.43;8.55;;;;;;;3.46;64.90;101684.56;1818488;78;21217;-60
2022/10/15 01:11:56;;;;;;;16.90;8.95;;;;;;;3.41;64.79;101685.84;1805053;79;21208;-62
2022/10/15 01:15:26;;;;;;;16.73;9.38;;;;;;;3.38;64.87;101686.04;1837776;78;21221;-60
2022/10/15 01:18:51;;;;;;;17.52;8.73;;;;;;;3.39;64.96;101687.77;1805131;79;21338;-62
2022/10/15 01:22:08;;;;;;;18.17;9.20;;;;;;;3.38;65.09;101690.09;1818937;77;21706;-61
2022/10/15 01:25:54;;;;;;;19.50;8.50;;;;;;;3.39;65.20;101687.30;1805070;79;21165;-62
2022/10/15 01:29:22;;;;;;;17.65;7.95;;;;;;;3.42;65.29;101695.22;1837762;78;21271;-62
2022/10/15 01:32:34;;;;;;;14.75;8.00;;;;;;;3.45;65.35;101693.66;1804965;79;21256;-61
2022/10/15 01:35:55;;;;;;;13.75;7.72;;;;;;;3.47;65.37;101697.14;1837796;78;21216;-62
2022/10/15 01:39:29;;;;;;;17.32;8.08;;;;;;;3.49;65.40;101703.30;1738088;81;21338;-61
2022/10/15 01:42:42;;;;;;;15.33;8.00;;;;;;;3.44;65.27;101699.17;1806498;79;21357;-63
2022/10/15 01:45:57;;;;;;;14.30;8.55;;;;;;;3.42;65.33;101706.04;1806472;79;21287;-61
2022/10/15 01:49:11;;;;;;;12.68;7.08;;;;;;;3.40;65.37;101699.84;1799448;79;21851;-60
2022/10/15 01:52:20;;;;;;;16.42;7.25;;;;;;;3.39;65.35;101702.18;1806414;79;21197;-61
2022/10/15 01:55:27;;;;;;;11.05;7.35;;;;;;;3.38;65.39;101695.00;1806445;79;21167;-61
2022/10/15 01:58:34;;;;;;;16.02;7.67;;;;;;;3.37;65.36;101699.16;1805815;79;21239;-61
2022/10/15 02:01:40;;;;;;;14.60;6.50;;;;;;;3.31;65.30;101704.97;1805923;79;21176;-61
2022/10/15 02:04:46;;;;;;;13.83;6.50;;;;;;;3.29;65.37;101712.31;1800632;79;21188;-60
2022/10/15 02:08:00;;;;;;;17.10;7.10;;;;;;;3.30;65.43;101717.63;1800207;79;21789;-61
2022/10/15 02:11:13;;;;;;;;;;;;;;;3.27;65.42;101721.88;1802861;79;21133;-60
2022/10/15 02:14:25;;;;;;;14.05;6.75;;;;;;;3.28;65.50;101716.88;1789568;79;20639;-61
2022/10/15 02:17:42;;;;;;;11.73;6.60;;;;;;;3.26;65.55;101718.80;1800632;79;21243;-62
2022/10/15 02:21:03;;;;;;;12.47;7.53;;;;;;;3.25;65.51;101724.31;1800487;79;21180;-60
2022/10/15 02:24:19;;;;;;;13.15;6.37;;;;;;;3.25;65.56;101724.31;1805705;79;21196;-61
2022/10/15 02:27:28;;;;;;;14.20;6.95;;;;;;;3.26;65.59;101727.39;1805918;79;21701;-62
2022/10/15 02:30:33;;;;;;;12.25;7.37;;;;;;;3.25;65.56;101731.92;1805892;79;21215;-62
2022/10/15 02:33:39;;;;;;;10.48;7.17;;;;;;;3.25;65.62;101735.14;1788026;79;21231;-62
2022/10/15 02:36:47;;;;;;;14.65;8.45;;;;;;;3.26;65.68;101730.98;1800883;79;21724;-61
2022/10/15 02:39:53;;;;;;;15.50;8.33;;;;;;;3.22;65.51;101739.39;1835149;77;21209;-61
2022/10/15 02:42:59;;;;;;;14.00;7.85;;;;;;;3.17;65.54;101738.33;1840055;77;21328;-61
2022/10/15 02:46:06;;;;;;;15.90;8.18;;;;;;;3.10;65.45;101738.31;1835460;77;21173;-61
2022/10/15 02:49:12;;;;;;;14.50;8.33;;;;;;;3.00;65.37;101739.36;1839451;77;21271;-61
2022/10/15 02:52:18;;;;;;;14.40;7.33;;;;;;;2.97;65.50;101738.67;1850937;76;21169;-61
2022/10/15 02:55:24;;;;;;;14.80;7.83;;;;;;;2.90;65.47;101742.23;1839363;77;21169;-61
2022/10/15 02:58:30;;;;;;;16.27;7.90;;;;;;;2.87;65.57;101744.28;1840239;77;21224;-62
2022/10/15 03:01:35;;;;;;;14.50;7.70;;;;;;;2.88;65.67;101741.95;1839673;77;21182;-61
2022/10/15 03:04:42;;;;;;;17.67;9.48;;;;;;;2.81;65.57;101743.28;1850840;77;21185;-62
2022/10/15 03:07:42;;;;;;;18.77;9.08;;;;;;;2.70;65.44;101744.41;1839292;77;21161;-61
2022/10/15 03:10:37;;;;;;;15.23;9.30;;;;;;;2.62;65.45;101741.30;1839278;77;21547;-62
2022/10/15 03:13:45;;;;;;;16.30;10.13;;;;;;;2.55;65.53;101739.44;1839183;77;21173;-61
2022/10/15 03:16:54;;;;;;;16.42;9.58;;;;;;;2.56;65.68;101740.33;1839729;77;21232;-62
2022/10/15 03:19:59;;;;;;;17.17;10.03;;;;;;;2.52;65.70;101742.33;1830036;77;21197;-61
2022/10/15 03:23:07;;;;;;;14.87;9.33;;;;;;;2.53;65.89;101745.92;1839482;77;21177;-62
2022/10/15 03:26:20;;;;;;;15.45;9.38;;;;;;;2.62;66.02;101751.64;1871625;76;22215;-62
2022/10/15 03:29:27;;;;;;;18.62;9.05;;;;;;;2.52;65.98;101747.73;1810668;78;21236;-60
2022/10/15 03:32:34;;;;;;;16.62;8.95;;;;;;;2.54;66.06;101751.23;1769151;81;21190;-62
2022/10/15 03:35:42;;;;;;;16.17;8.65;;;;;;;2.56;66.18;101747.96;1769026;80;21189;-61
2022/10/15 03:38:48;;;;;;;18.10;8.53;;;;;;;2.55;66.06;101746.70;1770543;79;21314;-60
2022/10/15 03:41:54;;;;;;;18.37;8.60;;;;;;;2.47;66.00;101749.88;1722725;82;21213;-60
2022/10/15 03:45:01;;;;;;;15.70;8.68;;;;;;;2.47;66.18;101747.64;1738267;81;21421;-60
2022/10/15 03:48:09;;;;;;;21.23;10.78;;;;;;;2.51;66.29;101746.48;1738515;81;21268;-62
2022/10/15 03:51:15;;;;;;;24.63;11.35;;;;;;;2.51;66.31;101754.12;1770447;79;21193;-63
2022/10/15 03:54:25;;;;;;;16.23;9.73;;;;;;;2.54;66.40;101756.64;1738009;81;21189;-62
2022/10/15 03:57:31;;;;;;;17.30;9.18;;;;;;;2.59;66.42;101761.77;1782326;80;21311;-62
2022/10/15 04:00:37;;;;;;;14.65;8.90;;;;;;;2.60;66.35;101758.12;1781728;80;21318;-61
2022/10/15 04:03:44;;;;;;;20.08;10.10;;;;;;;2.55;66.12;101760.22;1768937;80;21363;-62
2022/10/15 04:06:51;;;;;;;16.02;9.35;;;;;;;2.45;66.02;101757.66;1768605;80;21158;-61
2022/10/15 04:09:59;;;;;;;17.95;9.03;;;;;;;2.41;66.10;101758.82;1768542;80;21252;-62
2022/10/15 04:13:05;;;;;;;18.15;9.13;;;;;;;2.39;66.17;101764.31;1747919;81;21358;-61
2022/10/15 04:16:12;;;;;;;18.17;8.83;;;;;;;2.39;66.18;101770.19;1724290;82;21185;-61
2022/10/15 04:19:19;;;;;;;17.23;8.90;;;;;;;2.38;66.19;101781.97;1744430;81;21204;-61
2022/10/15 04:22:27;;;;;;;14.83;8.45;;;;;;;2.38;66.27;101781.97;1744586;82;21896;-62
2022/10/15 04:25:32;;;;;;;15.23;8.93;;;;;;;2.45;66.51;101779.28;1736842;80;21210;-61
2022/10/15 04:28:39;;;;;;;18.07;8.90;;;;;;;2.53;66.64;101778.34;1754340;80;21239;-61
2022/10/15 04:31:47;;;;;;;16.70;9.10;;;;;;;2.61;66.73;101785.05;1788714;79;21307;-62
2022/10/15 04:34:53;;;;;;;15.05;9.03;;;;;;;2.68;66.75;101778.80;1774201;80;21189;-62
2022/10/15 04:38:16;;;;;;;16.35;9.85;;;;;;;2.68;66.53;101772.05;1752503;80;21200;-62
2022/10/15 04:41:24;;;;;;;19.48;10.58;;;;;;;2.62;66.37;101774.62;1788237;79;21197;-61
2022/10/15 04:44:35;;;;;;;17.85;9.95;;;;;;;2.64;66.52;101774.05;1779417;79;21313;-61
2022/10/15 04:47:42;;;;;;;16.52;9.65;;;;;;;2.65;66.54;101776.25;1787664;79;21831;-61
2022/10/15 04:50:49;;;;;;;18.15;9.28;;;;;;;2.72;66.72;101770.41;1768904;80;21244;-62
2022/10/15 04:53:57;;;;;;;19.23;9.43;;;;;;;2.81;66.87;101774.38;1771206;79;21209;-61
2022/10/15 04:57:04;;;;;;;21.10;10.18;;;;;;;2.89;66.89;101783.77;1740121;81;21283;-61
2022/10/15 05:00:11;;;;;;;25.55;9.50;;;;;;;2.97;66.94;101773.37;1733733;80;21209;-62
2022/10/15 05:03:25;;;;;;;23.30;9.73;;;;;;;3.06;66.98;101770.55;1726532;82;21700;-60
2022/10/15 05:06:33;;;;;;;24.10;9.93;;;;;;;3.15;67.03;101771.84;1780413;80;21225;-60
2022/10/15 05:09:40;;;;;;;19.27;8.83;;;;;;;3.25;67.03;101782.48;1779104;80;21205;-61
2022/10/15 05:12:47;;;;;;;18.02;8.33;;;;;;;3.30;66.97;101779.86;1778104;80;21182;-62
2022/10/15 05:15:58;;;;;;;14.40;7.87;;;;;;;3.35;66.91;101783.63;1779448;80;21304;-62
2022/10/15 05:19:07;;;;;;;23.73;8.35;;;;;;;3.39;66.91;101780.67;1732819;82;21228;-62
2022/10/15 05:22:14;;;;;;;16.20;8.78;;;;;;;3.43;66.89;101791.67;1732555;82;21593;-61
2022/10/15 05:25:25;;;;;;;14.18;8.03;;;;;;;3.50;66.97;101783.57;1767077;80;21186;-61
2022/10/15 05:28:31;;;;;;;11.95;7.30;;;;;;;3.60;67.10;101790.12;1746845;80;21208;-62
2022/10/15 05:31:40;;;;;;;15.93;7.22;;;;;;;3.72;67.14;101790.71;1732135;81;21184;-61
2022/10/15 05:34:47;;;;;;;15.30;7.60;;;;;;;3.84;67.21;101799.86;1731668;81;21279;-62
2022/10/15 05:37:57;;;;;;;14.43;7.75;;;;;;;3.92;67.16;101807.89;1741399;81;21362;-62
2022/10/15 05:41:04;;;;;;;14.87;7.78;;;;;;;4.02;67.17;101810.88;1749581;82;21191;-62
2022/10/15 05:44:12;;;;;;;15.23;8.23;;;;;;;4.10;67.19;101812.61;1755398;81;21324;-62
2022/10/15 05:47:20;;;;;;;14.75;8.18;;;;;;;4.20;67.27;101812.41;1742145;82;21409;-62
2022/10/15 05:50:36;;;;;;;13.15;6.90;;;;;;;4.31;67.36;101812.06;1718257;82;21245;-63
2022/10/15 05:53:45;;;;;;;18.60;9.40;;;;;;;4.43;67.40;101818.52;1761092;80;21247;-62
2022/10/15 05:56:51;;;;;;;17.87;7.12;;;;;;;4.55;67.44;101813.66;1762843;81;21340;-61
2022/10/15 06:00:00;;;;;;;10.50;6.83;;;;;;;4.66;67.40;101814.28;1767686;80;21309;-63
2022/10/15 06:03:22;;;;;;;10.72;6.62;;;;;;;4.76;67.40;101816.77;1750048;81;21220;-62
2022/10/15 06:06:30;;;;;;;11.40;6.22;;;;;;;4.87;67.40;101819.61;1754910;81;21224;-61
2022/10/15 06:09:38;;;;;;;13.65;5.92;;;;;;;4.97;67.48;101816.63;1748706;81;21205;-61
2022/10/15 06:12:46;;;;;;;11.05;6.30;;;;;;;5.08;67.48;101828.98;1743194;81;21260;-62
2022/10/15 06:15:53;;;;;;;11.22;6.92;;;;;;;5.20;67.54;101829.50;1709808;83;21201;-62
2022/10/15 06:19:00;;;;;;;15.03;6.15;;;;;;;5.31;67.59;101822.84;1745584;81;21684;-62
2022/10/15 06:22:06;;;;;;;10.40;5.70;;;;;;;5.43;67.66;101820.13;1712851;82;21198;-62
2022/10/15 06:25:15;;;;;;;9.90;5.80;;;;;;;5.56;67.70;101829.16;1743392;81;21252;-62
2022/10/15 06:28:20;;;;;;;12.05;6.60;;;;;;;5.68;67.72;101830.11;1715036;80;21200;-60
2022/10/15 06:31:24;;;;;;;8.83;5.80;;;;;;;5.79;67.79;101822.05;1798741;79;21181;-63
2022/10/15 06:34:30;;;;;;;8.50;5.30;;;;;;;5.91;67.83;101823.94;1795503;78;21394;-62
2022/10/15 06:37:36;;;;;;;10.75;5.22;;;;;;;6.03;67.86;101828.47;1777682;79;21220;-62
2022/10/15 06:40:45;;;;;;;10.40;5.70;;;;;;;6.15;67.88;101830.80;1793788;79;21236;-62
2022/10/15 06:43:51;;;;;;;10.23;5.65;;;;;;;6.25;67.90;101825.08;1798356;79;21285;-62
2022/10/15 06:46:58;;;;;;;8.55;5.05;;;;;;;6.37;67.91;101823.67;1798499;79;21220;-61
2022/10/15 06:50:06;;;;;;;6.67;4.83;;;;;;;6.48;67.96;101827.81;1794814;79;21193;-62
2022/10/15 06:53:12;;;;;;;8.58;5.05;;;;;;;6.59;67.98;101822.44;1809014;79;21200;-62
2022/10/15 06:56:17;;;;;;;8.23;5.05;;;;;;;6.72;68.00;101826.46;1798591;79;21703;-61
2022/10/15 06:59:24;;;;;;;10.00;4.90;;;;;;;6.83;68.04;101832.84;1799585;78;21687;-61
2022/10/15 07:02:30;;;;;;;6.30;4.40;;;;;;;6.96;68.02;101830.89;1799736;79;21232;-61
2022/10/15 07:05:37;;;;;;;7.28;4.58;;;;;;;7.06;68.04;101826.48;1799947;79;21825;-61
2022/10/15 07:08:44;;;;;;;8.15;4.95;;;;;;;7.19;68.04;101830.00;1799902;78;21197;-61
2022/10/15 07:11:51;;;;;;;7.62;4.53;;;;;;;7.32;68.08;101827.19;1800012;79;21366;-61
2022/10/15 07:14:59;;;;;;;8.63;4.67;;;;;;;7.44;68.10;101829.81;1796445;79;21284;-63
2022/10/15 07:18:05;;;;;;;8.10;4.62;;;;;;;7.57;68.12;101821.54;1797106;80;21244;-61
2022/10/15 07:21:12;;;;;;;6.03;4.12;;;;;;;7.68;68.09;101817.95;1797147;80;21201;-61
2022/10/15 07:24:17;;;;;;;8.50;4.30;;;;;;;7.80;68.13;101820.55;1758945;79;21216;-61
2022/10/15 07:27:24;;;;;;;8.43;4.22;;;;;;;7.93;68.12;101815.02;1797911;79;21268;-63
2022/10/15 07:30:30;;;;;;;10.08;4.22;;;;;;;8.05;68.13;101816.73;1800880;79;21617;-62
2022/10/15 07:33:36;;;;;;;8.65;4.12;;;;;;;8.15;68.08;101822.66;1765133;79;21539;-61
2022/10/15 07:36:45;;;;;;;6.95;3.47;;;;;;;8.27;68.07;101814.02;1765655;81;21810;-62
2022/10/15 07:39:52;;;;;;;8.60;4.12;;;;;;;8.37;67.99;101815.00;1771570;79;21766;-62
2022/10/15 07:43:02;;;;;;;5.80;4.00;;;;;;;8.46;67.97;101815.59;1766487;81;21905;-62
2022/10/15 07:46:07;;;;;;;7.45;3.45;;;;;;;8.55;67.96;101814.81;1768120;79;21807;-61
2022/10/15 07:49:15;;;;;;;9.33;3.95;;;;;;;8.65;67.95;101813.94;1764209;80;21794;-62
2022/10/15 07:52:24;;;;;;;7.65;3.62;;;;;;;8.75;67.91;101816.77;1763502;79;21166;-62
2022/10/15 07:55:30;;;;;;;6.28;3.08;;;;;;;8.85;67.91;101815.84;1797849;79;21181;-62
2022/10/15 07:58:36;;;;;;;6.20;2.87;;;;;;;8.98;67.95;101815.67;1761977;79;21185;-62
2022/10/15 08:01:43;;;;;;;7.78;3.30;;;;;;;9.08;67.89;101815.27;1736418;82;21213;-62
2022/10/15 08:04:50;;;;;;;7.12;3.00;;;;;;;9.17;67.85;101810.36;1732704;81;21233;-61
2022/10/15 08:07:56;;;;;;;8.85;3.42;;;;;;;9.25;67.77;101807.84;1762065;81;21367;-62
2022/10/15 08:11:04;;;;;;;7.30;2.77;;;;;;;9.35;67.75;101807.91;1763195;81;21206;-61
2022/10/15 08:14:09;;;;;;;6.30;2.65;;;;;;;9.44;67.73;101809.34;1762629;81;21225;-61
2022/10/15 08:17:18;;;;;;;5.28;2.87;;;;;;;9.55;67.71;101809.27;1751705;82;21193;-61
2022/10/15 08:20:24;;;;;;;4.30;2.50;;;;;;;9.63;67.61;101811.31;1762588;81;22046;-61
2022/10/15 08:23:32;;;;;;;6.20;2.33;;;;;;;9.73;67.63;101803.55;1764887;81;21229;-62
2022/10/15 08:26:38;;;;;;;6.95;2.55;;;;;;;9.87;67.67;101805.05;1776156;81;21394;-62
2022/10/15 08:29:45;;;;;;;3.80;2.25;;;;;;;10.02;67.75;101803.17;1795835;79;21300;-63
2022/10/15 08:32:51;;;;;;;5.50;2.50;;;;;;;10.14;67.74;101802.11;1765933;79;21317;-61
2022/10/15 08:35:58;;;;;;;4.97;2.25;;;;;;;10.24;67.61;101807.09;1737483;81;21197;-62
2022/10/15 08:39:06;;;;;;;2.95;2.10;;;;;;;10.35;67.52;101806.14;1761349;80;21201;-61
2022/10/15 08:42:30;;;;;;;6.60;2.37;;;;;;;10.45;67.45;101802.41;1758247;80;21726;-62
2022/10/15 08:45:43;;;;;;;5.72;2.40;;;;;;;10.55;67.33;101803.80;1770697;80;21332;-63
2022/10/15 08:48:55;;;;;;;5.45;2.47;;;;;;;10.65;67.27;101803.33;1768241;80;21178;-62
2022/10/15 08:52:03;;;;;;;3.60;2.10;;;;;;;10.73;67.17;101798.02;1778418;79;21735;-63
2022/10/15 08:55:13;;;;;;;4.22;2.35;;;;;;;10.80;67.05;101801.89;1785191;80;21188;-62
2022/10/15 08:58:47;;;;;;;3.92;2.30;;;;;;;10.84;66.88;101800.61;1767430;79;21213;-62
2022/10/15 09:01:59;;;;;;;3.70;2.05;;;;;;;10.88;66.80;101797.09;1768288;79;21213;-62
2022/10/15 09:05:08;;;;;;;5.33;1.90;;;;;;;10.96;66.72;101803.56;1767117;80;21777;-63
2022/10/15 09:08:25;;;;;;;3.12;1.98;;;;;;;11.02;66.63;101793.39;1762701;79;21202;-63
2022/10/15 09:12:09;;;;;;;4.90;2.15;;;;;;;11.11;66.55;101799.89;1767707;80;21183;-63
2022/10/15 09:15:20;;;;;;;4.30;2.20;;;;;;;11.16;66.38;101792.11;1768003;80;21203;-62
2022/10/15 09:18:31;;;;;;;4.00;2.27;;;;;;;11.25;66.43;101788.48;1776924;79;21215;-61
2022/10/15 09:21:37;;;;;;;4.75;2.17;;;;;;;11.30;66.26;101784.80;1767258;80;21345;-62
2022/10/15 09:24:44;;;;;;;8.78;2.67;;;;;;;11.31;66.09;101793.37;1771700;79;21246;-62
2022/10/15 09:27:55;;;;;;;5.15;2.27;;;;;;;11.37;66.12;101787.33;1771363;80;21305;-62
2022/10/15 09:31:04;;;;;;;5.08;2.35;;;;;;;11.46;66.13;101791.92;1762682;79;21281;-62
2022/10/15 09:34:22;;;;;;;4.45;2.05;;;;;;;11.53;66.04;101791.17;1805303;79;21335;-61
2022/10/15 09:37:41;;;;;;;7.72;2.30;;;;;;;11.58;65.90;101787.98;1800529;79;21169;-61
2022/10/15 09:41:23;;;;;;;5.50;1.80;;;;;;;11.63;65.77;101782.95;1801214;79;21248;-62
2022/10/15 09:44:31;;;;;;;3.12;1.92;;;;;;;11.70;65.76;101786.85;1774780;79;21231;-63
2022/10/15 09:47:41;;;;;;;7.42;2.10;;;;;;;11.77;65.73;101791.59;1769318;79;21182;-62
2022/10/15 09:50:50;;;;;;;5.83;2.35;;;;;;;11.87;65.70;101786.94;1768728;80;21213;-62
2022/10/15 09:54:17;;;;;;;2.90;1.80;;;;;;;11.93;65.52;101784.96;1758249;80;21379;-62
2022/10/15 09:57:23;;;;;;;3.80;2.12;;;;;;;12.02;65.43;101792.78;1718948;82;21203;-62
2022/10/15 10:00:29;;;;;;;4.62;2.37;;;;;;;12.10;65.30;101793.42;1724498;82;21175;-62
2022/10/15 10:03:42;;;;;;;4.65;2.58;;;;;;;12.20;65.31;101784.11;1719436;82;21348;-61
2022/10/15 10:07:00;;;;;;;3.62;2.20;;;;;;;12.34;65.30;101784.97;1719599;83;21321;-62
2022/10/15 10:10:12;;;;;;;5.75;2.75;;;;;;;12.48;65.28;101786.35;1773169;81;21206;-62
2022/10/15 10:13:40;;;;;;;7.37;2.50;;;;;;;12.58;65.14;101777.02;1719816;82;21207;-61
2022/10/15 10:16:45;;;;;;;3.90;2.25;;;;;;;12.64;64.95;101787.88;1766669;81;21722;-62
2022/10/15 10:20:14;;;;;;;3.42;2.45;;;;;;;12.72;64.79;101786.09;1728528;81;21201;-61
2022/10/15 10:23:30;;;;;;;4.28;2.10;;;;;;;12.80;64.68;101781.19;1722649;82;21227;-62
2022/10/15 10:26:36;;;;;;;4.40;2.70;;;;;;;12.88;64.52;101784.02;1721507;81;21268;-62
2022/10/15 10:29:45;;;;;;;4.47;2.47;;;;;;;12.95;64.52;101779.64;1739899;81;21264;-62
2022/10/15 10:32:55;;;;;;;5.50;2.35;;;;;;;13.04;64.45;101787.84;1735539;79;21748;-62
2022/10/15 10:36:00;;;;;;;5.10;2.90;;;;;;;13.15;64.47;101776.59;1742733;81;21592;-62
2022/10/15 10:39:23;;;;;;;8.08;2.58;;;;;;;13.24;64.38;101771.52;1733531;82;21191;-62
2022/10/15 10:42:40;;;;;;;6.08;2.20;;;;;;;13.33;64.32;101775.20;1738742;82;21279;-62
2022/10/15 10:46:00;;;;;;;7.08;2.40;;;;;;;13.42;64.15;101776.48;1765511;81;21221;-61
2022/10/15 10:49:09;;;;;;;4.75;2.65;;;;;;;13.52;64.06;101775.85;1741690;82;21227;-61
2022/10/15 10:52:42;;;;;;;4.58;2.62;;;;;;;13.65;63.93;101767.70;1726814;82;21208;-61
2022/10/15 10:55:51;;;;;;;4.33;2.40;;;;;;;13.71;63.83;101767.05;1741907;82;21334;-62
2022/10/15 10:59:19;;;;;;;4.62;2.45;;;;;;;13.79;63.66;101765.72;1728916;83;21296;-63
2022/10/15 11:02:26;;;;;;;4.92;2.33;;;;;;;13.82;63.53;101763.52;1762440;81;21232;-62
2022/10/15 11:05:40;;;;;;;3.70;2.30;;;;;;;13.86;63.37;101758.02;1751994;81;21245;-61
2022/10/15 11:09:27;;;;;;;4.62;2.62;;;;;;;13.85;63.21;101765.06;1760543;81;21208;-62
2022/10/15 11:12:54;;;;;;;5.53;2.80;;;;;;;13.85;63.21;101763.69;1769749;81;21180;-62
2022/10/15 11:16:29;;;;;;;5.87;2.92;;;;;;;13.95;63.06;101756.18;1735245;79;21228;-62
2022/10/15 11:19:51;;;;;;;3.75;2.62;;;;;;;14.08;63.14;101755.22;1686070;83;21167;-61
2022/10/15 11:23:10;;;;;;;4.83;3.12;;;;;;;14.28;63.21;101754.83;1718547;83;21318;-61
2022/10/15 11:26:53;;;;;;;5.42;2.70;;;;;;;14.39;62.86;101750.89;1686369;84;21741;-62
2022/10/15 11:30:38;;;;;;;6.95;2.60;;;;;;;14.43;62.66;101744.03;1732724;82;21374;-61
2022/10/15 11:34:02;;;;;;;5.75;2.83;;;;;;;14.55;62.51;101748.19;1746996;78;21550;-62
2022/10/15 11:37:42;;;;;;;4.08;2.80;;;;;;;14.64;62.40;101734.26;1770779;80;21189;-61
2022/10/15 11:41:19;;;;;;;5.85;3.05;;;;;;;14.66;62.14;101741.85;1804988;79;21193;-62
2022/10/15 11:44:53;;;;;;;9.33;2.77;;;;;;;14.69;61.98;101737.38;1803249;78;21366;-62
2022/10/15 11:48:27;;;;;;;7.40;2.80;;;;;;;14.76;61.80;101735.64;1765558;81;21249;-62
2022/10/15 11:52:11;;;;;;;5.95;3.33;;;;;;;14.81;61.67;101736.00;1773210;81;21207;-61
2022/10/15 11:56:09;;;;;;;4.83;2.80;;;;;;;14.83;61.38;101739.97;1774184;81;21201;-62
2022/10/15 11:59:24;;;;;;;7.15;2.60;;;;;;;14.81;61.25;101738.77;1794904;78;21165;-60
2022/10/15 12:02:43;;;;;;;5.87;2.77;;;;;;;14.84;61.13;101736.20;1745953;80;21718;-61
2022/10/15 12:06:10;;;;;;;6.55;2.75;;;;;;;14.86;60.94;101735.48;1772221;80;21181;-61
2022/10/15 12:09:20;;;;;;;6.08;2.60;;;;;;;14.72;60.58;101740.30;1745088;80;21201;-61
2022/10/15 12:12:46;;;;;;;5.85;2.50;;;;;;;14.61;60.67;101740.11;1772556;80;21721;-62
2022/10/15 12:16:10;;;;;;;2.58;2.05;;;;;;;14.60;60.61;101735.61;1803688;78;21608;-60
2022/10/15 12:19:35;;;;;;;5.80;2.52;;;;;;;14.61;60.53;101737.36;1784274;79;21385;-61
2022/10/15 12:22:46;;;;;;;3.70;2.00;;;;;;;14.64;60.41;101730.62;1784680;79;21733;-62
2022/10/15 12:25:52;;;;;;;3.58;2.02;;;;;;;14.68;60.27;101732.03;1784775;80;21220;-61
2022/10/15 12:29:03;;;;;;;7.05;2.47;;;;;;;14.70;60.25;101735.45;1784676;79;21879;-62
2022/10/15 12:32:10;;;;;;;8.90;3.00;;;;;;;14.76;60.19;101733.42;1774243;81;21209;-62
2022/10/15 12:35:25;;;;;;;6.65;2.65;;;;;;;14.78;60.00;101730.83;1778380;78;21205;-61
2022/10/15 12:38:39;;;;;;;4.47;2.22;;;;;;;14.77;59.89;101727.73;1789405;78;21331;-61
2022/10/15 12:41:50;;;;;;;6.15;2.80;;;;;;;14.79;59.73;101730.33;1787884;79;21182;-61
2022/10/15 12:44:56;;;;;;;8.93;3.02;;;;;;;14.81;59.68;101726.86;1779221;79;21816;-61
2022/10/15 12:48:16;;;;;;;5.87;2.92;;;;;;;14.85;59.63;101731.02;1813285;77;21244;-61
2022/10/15 12:51:31;;;;;;;6.58;3.10;;;;;;;14.77;59.36;101735.14;1764757;79;21213;-62
2022/10/15 12:54:48;;;;;;;6.10;2.50;;;;;;;14.76;59.40;101734.27;1741238;80;21228;-61
2022/10/15 12:58:03;;;;;;;5.10;2.55;;;;;;;14.78;59.35;101726.70;1740591;80;21276;-61
2022/10/15 13:01:23;;;;;;;7.05;2.92;;;;;;;14.80;59.17;101734.80;1744036;82;21226;-61
2022/10/15 13:04:29;;;;;;;5.00;2.60;;;;;;;14.85;59.15;101731.02;1728055;82;21272;-62
2022/10/15 13:07:36;;;;;;;6.45;2.70;;;;;;;14.86;59.05;101727.22;1744325;80;21390;-61
2022/10/15 13:10:47;;;;;;;7.67;2.30;;;;;;;14.83;59.01;101722.92;1771057;80;21184;-62
2022/10/15 13:13:54;;;;;;;5.97;3.08;;;;;;;14.86;58.99;101722.57;1746054;82;21214;-61
2022/10/15 13:17:02;;;;;;;5.67;2.30;;;;;;;14.84;58.58;101726.55;1725364;81;21754;-63
2022/10/15 13:20:15;;;;;;;5.42;2.30;;;;;;;14.82;58.62;101721.71;1712161;82;21746;-61
2022/10/15 13:23:29;;;;;;;4.67;1.98;;;;;;;14.81;58.49;101729.61;1747157;81;21229;-61
2022/10/15 13:26:35;;;;;;;5.50;2.22;;;;;;;14.78;58.32;101728.58;1762198;81;21236;-61
2022/10/15 13:29:40;;;;;;;3.50;2.02;;;;;;;14.72;58.16;101737.53;1746039;81;21225;-62
2022/10/15 13:32:56;;;;;;;3.58;1.90;;;;;;;14.69;58.11;101735.13;1768327;79;21174;-62
2022/10/15 13:36:01;;;;;;;5.28;2.10;;;;;;;14.64;58.00;101726.49;1775994;79;21185;-61
2022/10/15 13:39:12;;;;;;;8.93;2.55;;;;;;;14.62;57.88;101729.93;1799150;78;21291;-62
2022/10/15 13:42:25;;;;;;;;;;;;;;;14.55;57.60;101720.63;1773055;80;21314;-61
2022/10/15 13:45:31;;;;;;;5.15;1.90;;;;;;;14.51;57.49;101716.47;1773323;80;20573;-61
2022/10/15 13:48:38;;;;;;;4.92;2.12;;;;;;;14.45;57.34;101718.53;1808372;79;21216;-62
2022/10/15 13:51:59;;;;;;;6.15;1.95;;;;;;;14.39;57.26;101716.45;1807631;79;21777;-61
2022/10/15 13:55:07;;;;;;;4.50;2.20;;;;;;;14.38;57.32;101724.38;1803733;79;21216;-61
2022/10/15 13:58:37;;;;;;;7.53;2.12;;;;;;;14.26;56.99;101724.32;1800415;78;21335;-61
2022/10/15 14:01:43;;;;;;;5.17;1.85;;;;;;;14.12;56.78;101727.69;1800551;79;21205;-62
2022/10/15 14:04:49;;;;;;;4.60;2.20;;;;;;;14.04;56.90;101730.40;1757734;80;21241;-62
2022/10/15 14:08:01;;;;;;;4.67;2.58;;;;;;;13.99;56.92;101732.28;1767517;80;21315;-61
2022/10/15 14:11:07;;;;;;;5.45;2.98;;;;;;;13.90;56.83;101733.78;1767156;80;21711;-62
2022/10/15 14:14:34;;;;;;;9.65;3.80;;;;;;;13.77;56.68;101733.36;1736602;82;21185;-61
2022/10/15 14:17:41;;;;;;;8.38;3.30;;;;;;;13.66;56.65;101729.51;1781052;79;21443;-61
2022/10/15 14:20:52;;;;;;;6.37;2.98;;;;;;;13.47;56.57;101725.97;1789406;80;21316;-61
2022/10/15 14:23:57;;;;;;;9.70;3.98;;;;;;;13.30;56.40;101729.61;1772587;80;21193;-61
2022/10/15 14:27:10;;;;;;;11.63;4.42;;;;;;;13.12;56.38;101726.55;1726041;81;21232;-62
2022/10/15 14:30:38;;;;;;;9.73;3.27;;;;;;;12.96;56.39;101725.00;1701877;82;21227;-62
2022/10/15 14:33:46;;;;;;;;;;;;;;;12.80;56.34;101728.97;1803018;78;21207;-62
2022/10/15 14:36:52;;;;;;;6.78;2.67;;;;;;;12.63;56.24;101732.09;1791612;79;20217;-62
2022/10/15 14:40:00;;;;;;;5.35;3.02;;;;;;;12.44;56.14;101728.61;1767877;79;21221;-61
2022/10/15 14:43:24;;;;;;;7.62;3.02;;;;;;;12.23;56.05;101726.14;1729895;81;21186;-62
2022/10/15 14:46:31;;;;;;;11.68;2.98;;;;;;;12.01;55.90;101725.19;1766098;80;21190;-61
2022/10/15 14:49:40;;;;;;;7.33;3.15;;;;;;;11.75;55.69;101729.13;1766179;79;21198;-61
2022/10/15 14:52:54;;;;;;;10.00;3.02;;;;;;;11.51;55.68;101725.16;1781316;79;21190;-61
2022/10/15 14:56:06;;;;;;;9.75;2.80;;;;;;;11.28;55.64;101731.48;1768728;81;21676;-61